Terminal Aerodrome Forecast
Issued by NWS

Home | Current Version | Previous Version | Graphics & Text | Print | Product List | Glossary Off
Versions: 1 2 3 4 5 6 7 8 9 10 11 12 13 14 15 16 17 18 19

000
FTUS43 KDDC 240520
TAFHYS
TAF
KHYS 240520Z 2406/2506 16013KT P6SM VCSH OVC080
     FM240800 16020G28KT P6SM BKN200 WS020/18045KT
     FM241000 16018G26KT P6SM SCT250
     FM241700 16016KT P6SM VCSH BKN250
     FM250000 35020G28KT P6SM BKN015
      AMD NOT SKED=

USA.gov is the U.S. government's official web portal to all federal, state and local government web resources and services.